createdAt,value
2023-01-10T00:02:18.483Z,5.30
2023-01-10T00:04:46.882Z,5.32
2023-01-10T00:07:15.234Z,5.38
2023-01-10T00:09:43.576Z,5.39
2023-01-10T00:12:31.054Z,5.38
2023-01-10T00:14:59.599Z,5.34
2023-01-10T00:17:28.259Z,5.35
2023-01-10T00:19:56.924Z,5.41
2023-01-10T00:22:27.720Z,5.41
2023-01-10T00:24:56.132Z,5.44
2023-01-10T00:27:26.167Z,5.42
2023-01-10T00:29:54.786Z,5.41
2023-01-10T00:32:23.845Z,5.41
2023-01-10T00:34:53.475Z,5.56
2023-01-10T00:37:22.135Z,5.57
2023-01-10T00:39:50.730Z,5.63
2023-01-10T00:42:37.033Z,5.68
2023-01-10T00:45:09.181Z,5.70
2023-01-10T00:47:37.751Z,5.69
2023-01-10T00:50:08.871Z,5.66
2023-01-10T00:52:37.454Z,5.69
2023-01-10T00:55:06.812Z,5.88
2023-01-10T00:57:35.616Z,5.99
2023-01-10T01:00:10.408Z,6.02
2023-01-10T01:02:39.484Z,6.07
2023-01-10T01:05:09.045Z,6.14
2023-01-10T01:07:37.814Z,6.13
2023-01-10T01:10:24.289Z,6.25
2023-01-10T01:12:53.828Z,6.22
2023-01-10T01:15:23.936Z,6.20
2023-01-10T01:17:52.577Z,6.19
2023-01-10T01:20:21.962Z,6.19
2023-01-10T01:22:50.549Z,6.26
2023-01-10T01:25:19.086Z,6.38
2023-01-10T01:27:47.690Z,6.40
2023-01-10T01:30:16.768Z,6.31
2023-01-10T01:32:46.700Z,6.29
2023-01-10T01:35:19.844Z,6.31
2023-01-10T01:37:48.583Z,6.46
2023-01-10T01:40:18.746Z,6.39
2023-01-10T01:42:48.458Z,6.35
2023-01-10T01:45:36.135Z,6.34
2023-01-10T01:48:27.323Z,6.30
2023-01-10T01:51:05.660Z,6.28
2023-01-10T01:53:40.829Z,6.36
2023-01-10T01:56:15.431Z,6.35
2023-01-10T01:58:48.713Z,6.43
2023-01-10T02:01:18.336Z,6.52
2023-01-10T02:03:52.969Z,6.56
2023-01-10T02:06:25.323Z,6.66
2023-01-10T02:09:03.529Z,6.77
2023-01-10T02:11:32.278Z,6.92
2023-01-10T02:14:01.813Z,6.97
2023-01-10T02:16:30.171Z,6.97
2023-01-10T02:19:00.759Z,6.91
2023-01-10T02:21:47.747Z,6.77
2023-01-10T02:24:51.964Z,6.66
2023-01-10T02:27:30.034Z,6.61
2023-01-10T02:30:30.703Z,6.55
2023-01-10T02:33:09.878Z,6.48
2023-01-10T02:35:55.276Z,6.44
2023-01-10T02:38:35.562Z,6.46
2023-01-10T02:41:11.891Z,6.42
2023-01-10T02:43:48.606Z,6.47
2023-01-10T02:46:25.308Z,6.46
2023-01-10T02:48:56.665Z,6.38
2023-01-10T02:51:28.095Z,6.40
2023-01-10T02:54:01.195Z,6.26
2023-01-10T02:56:57.006Z,6.18
2023-01-10T02:59:48.941Z,6.11
2023-01-10T03:02:28.505Z,6.04
2023-01-10T03:05:09.998Z,6.00
2023-01-10T03:07:45.597Z,5.94
2023-01-10T03:10:18.362Z,5.91
2023-01-10T03:12:53.175Z,5.87
2023-01-10T03:15:23.774Z,5.83
2023-01-10T03:17:57.874Z,5.78
2023-01-10T03:20:31.108Z,5.82
2023-01-10T03:23:02.924Z,5.87
2023-01-10T03:25:36.875Z,5.77
2023-01-10T03:28:10.724Z,5.77
2023-01-10T03:30:45.090Z,5.72
2023-01-10T03:33:17.612Z,5.70
2023-01-10T03:35:59.213Z,5.66
2023-01-10T03:38:32.922Z,5.64
2023-01-10T03:41:08.435Z,5.66
2023-01-10T03:44:02.681Z,5.63
2023-01-10T03:46:38.815Z,5.64
2023-01-10T03:49:10.999Z,5.69
2023-01-10T03:51:42.263Z,5.69
2023-01-10T03:54:12.817Z,5.72
2023-01-10T03:56:50.502Z,5.75
2023-01-10T03:59:20.961Z,5.77
2023-01-10T04:01:49.895Z,5.78
2023-01-10T04:04:18.749Z,5.78
2023-01-10T04:06:48.931Z,5.77
2023-01-10T04:09:17.623Z,5.85
2023-01-10T04:11:46.213Z,5.88
2023-01-10T04:14:14.865Z,5.87
2023-01-10T04:16:44.715Z,5.86
2023-01-10T04:19:13.409Z,5.90
2023-01-10T04:21:42.193Z,5.91
2023-01-10T04:24:13.924Z,5.91
2023-01-10T04:26:42.463Z,5.97
2023-01-10T04:29:11.023Z,6.01
2023-01-10T04:31:40.397Z,6.05
2023-01-10T04:34:09.835Z,6.11
2023-01-10T04:36:38.484Z,6.09
2023-01-10T04:39:07.227Z,6.04
2023-01-10T04:41:37.378Z,6.13
2023-01-10T04:44:06.470Z,6.16
2023-01-10T04:46:35.412Z,6.15
2023-01-10T04:49:04.087Z,6.15
2023-01-10T04:51:33.921Z,6.19
2023-01-10T04:54:02.514Z,6.27
2023-01-10T04:56:31.038Z,6.34
2023-01-10T04:59:01.139Z,6.36
2023-01-10T05:01:29.898Z,6.34
2023-01-10T05:03:58.557Z,6.34
2023-01-10T05:06:28.407Z,6.39
2023-01-10T05:08:58.049Z,6.41
2023-01-10T05:11:26.913Z,6.52
2023-01-10T05:13:55.976Z,6.55
2023-01-10T05:16:26.629Z,6.61
2023-01-10T05:18:55.854Z,6.66
2023-01-10T05:21:24.850Z,6.74
2023-01-10T05:23:53.425Z,6.72
2023-01-10T05:26:24.577Z,6.80
2023-01-10T05:28:53.321Z,6.88
2023-01-10T05:31:22.110Z,6.90
2023-01-10T05:33:53.453Z,6.93
2023-01-10T05:36:22.425Z,6.97
2023-01-10T05:38:50.955Z,6.98
2023-01-10T05:41:19.624Z,7.05
2023-01-10T05:43:48.314Z,7.09
2023-01-10T05:46:17.979Z,7.10
2023-01-10T05:48:46.990Z,7.16
2023-01-10T05:51:17.048Z,7.17
2023-01-10T05:53:45.950Z,7.19
2023-01-10T05:56:14.634Z,7.23
2023-01-10T05:58:44.337Z,7.25
2023-01-10T06:01:15.800Z,7.25
2023-01-10T06:04:03.406Z,7.27
2023-01-10T06:06:34.775Z,7.33
2023-01-10T06:09:03.492Z,7.30
2023-01-10T06:11:32.215Z,7.39
2023-01-10T06:14:00.826Z,7.47
2023-01-10T06:16:29.604Z,7.75
2023-01-10T06:18:58.285Z,7.89
2023-01-10T06:21:26.933Z,8.11
2023-01-10T06:23:56.924Z,8.37
2023-01-10T06:26:25.461Z,8.57
2023-01-10T06:28:53.886Z,8.71
2023-01-10T06:31:22.846Z,8.78
2023-01-10T06:33:52.483Z,8.85
2023-01-10T06:36:21.961Z,8.91
2023-01-10T06:38:50.560Z,8.91
2023-01-10T06:41:20.702Z,8.93
2023-01-10T06:43:51.511Z,8.95
2023-01-10T06:46:21.307Z,9.13
2023-01-10T06:48:51.394Z,9.21
2023-01-10T06:51:20.467Z,9.18
2023-01-10T06:53:49.358Z,9.33
2023-01-10T06:56:19.904Z,9.54
2023-01-10T06:58:50.910Z,9.73
2023-01-10T07:01:22.316Z,9.85
2023-01-10T07:03:51.156Z,9.96
2023-01-10T07:06:19.695Z,10.08
2023-01-10T07:08:48.918Z,10.08
2023-01-10T07:11:18.151Z,9.99
2023-01-10T07:13:48.418Z,9.99
2023-01-10T07:16:18.525Z,10.01
2023-01-10T07:18:47.350Z,10.05
2023-01-10T07:21:18.316Z,10.14
2023-01-10T07:23:48.970Z,10.23
2023-01-10T07:26:19.448Z,10.25
2023-01-10T07:28:51.799Z,10.28
2023-01-10T07:31:23.427Z,10.35
2023-01-10T07:33:53.821Z,10.40
2023-01-10T07:36:23.780Z,10.49
2023-01-10T07:38:59.624Z,10.56
2023-01-10T07:44:38.167Z,10.73
2023-01-10T07:57:03.970Z,10.94
2023-01-10T08:13:57.042Z,11.14
2023-01-10T08:16:26.885Z,11.24
2023-01-10T10:23:05.670Z,11.95
2023-01-10T10:25:57.540Z,12.09
2023-01-10T10:29:07.604Z,12.12
2023-01-10T10:31:55.307Z,12.17
2023-01-10T10:34:33.367Z,12.21
2023-01-10T10:37:06.852Z,12.24
2023-01-10T10:39:43.341Z,12.26
2023-01-10T10:42:16.781Z,12.25
2023-01-10T10:44:53.593Z,12.27
2023-01-10T10:47:25.950Z,12.24
2023-01-10T10:50:10.308Z,12.35
2023-01-10T10:52:39.358Z,12.42
2023-01-10T10:55:16.862Z,12.41
2023-01-10T10:57:59.804Z,12.40
2023-01-10T11:00:43.555Z,12.38
2023-01-10T11:03:27.845Z,12.40
2023-01-10T11:05:59.041Z,12.46
2023-01-10T11:08:39.193Z,12.44
2023-01-10T11:11:43.280Z,12.39
2023-01-10T11:14:13.878Z,12.57
2023-01-10T11:16:48.918Z,12.54
2023-01-10T11:19:30.631Z,12.53
2023-01-10T11:22:29.412Z,12.59
2023-01-10T11:25:01.993Z,12.55
2023-01-10T11:27:45.315Z,12.55
2023-01-10T11:30:42.017Z,12.59
2023-01-10T11:33:24.600Z,12.61
2023-01-10T11:36:06.270Z,12.67
2023-01-10T11:39:00.341Z,12.75
2023-01-10T11:41:53.530Z,12.70
2023-01-10T11:44:34.836Z,12.69
2023-01-10T11:47:15.117Z,12.75
2023-01-10T11:49:53.238Z,12.71
2023-01-10T11:52:31.670Z,12.74
2023-01-10T11:55:09.584Z,12.82
2023-01-10T11:57:39.594Z,12.75
2023-01-10T12:00:12.836Z,12.73
2023-01-10T12:02:52.785Z,12.78
2023-01-10T12:05:39.274Z,12.78
2023-01-10T12:08:27.698Z,12.77
2023-01-10T12:11:05.735Z,12.83
2023-01-10T12:13:50.193Z,12.80
2023-01-10T12:16:29.966Z,12.83
2023-01-10T12:19:20.160Z,12.85
2023-01-10T12:21:50.635Z,12.87
2023-01-10T12:24:27.218Z,12.88
2023-01-10T12:27:01.696Z,12.89
2023-01-10T12:29:34.908Z,12.91
2023-01-10T12:32:09.797Z,12.94
2023-01-10T12:34:50.923Z,13.01
2023-01-10T12:37:25.397Z,13.03
2023-01-10T12:40:01.205Z,13.02
2023-01-10T12:43:11.827Z,13.01
2023-01-10T12:45:47.825Z,13.05
2023-01-10T12:48:30.030Z,13.06
2023-01-10T12:51:25.206Z,13.06
2023-01-10T12:54:08.389Z,13.09
2023-01-10T12:56:37.468Z,13.12
2023-01-10T12:59:14.944Z,13.12
2023-01-10T13:02:02.495Z,13.08
2023-01-10T13:05:06.239Z,13.13
2023-01-10T13:07:55.172Z,13.16
2023-01-10T13:10:53.714Z,13.12
2023-01-10T13:14:08.721Z,13.19
2023-01-10T13:16:51.470Z,13.15
2023-01-10T13:19:30.989Z,13.13
2023-01-10T13:22:25.222Z,13.07
2023-01-10T13:25:07.525Z,13.12
2023-01-10T13:28:19.995Z,13.23
2023-01-10T13:31:12.041Z,13.18
2023-01-10T13:33:52.673Z,13.12
2023-01-10T13:36:59.604Z,13.07
2023-01-10T13:39:46.828Z,13.10
2023-01-10T13:42:49.707Z,13.15
2023-01-10T13:45:46.098Z,13.12
2023-01-10T13:48:42.849Z,13.05
2023-01-10T13:51:38.649Z,13.03
2023-01-10T13:54:32.740Z,12.98
2023-01-10T13:57:52.243Z,12.94
2023-01-10T14:01:10.144Z,13.00
2023-01-10T14:04:01.364Z,12.96
2023-01-10T14:06:45.647Z,12.99
2023-01-10T14:10:03.081Z,12.94
2023-01-10T14:12:40.035Z,12.91
2023-01-10T14:15:30.435Z,12.90
2023-01-10T14:18:04.388Z,12.97
2023-01-10T14:20:37.069Z,12.95
2023-01-10T14:23:22.316Z,12.86
2023-01-10T14:25:59.563Z,12.84
2023-01-10T14:29:13.191Z,12.90
2023-01-10T14:32:09.491Z,12.93
2023-01-10T14:34:49.964Z,12.92
2023-01-10T14:38:03.059Z,12.88
2023-01-10T14:43:12.283Z,12.83
2023-01-10T14:45:56.955Z,12.86
2023-01-10T14:48:37.878Z,12.90
2023-01-10T14:51:32.342Z,12.87
2023-01-10T14:54:22.186Z,12.80
2023-01-10T14:57:04.363Z,12.80
2023-01-10T14:59:40.347Z,12.89
2023-01-10T15:02:24.697Z,12.89
2023-01-10T15:05:04.803Z,12.89
2023-01-10T15:07:46.607Z,12.85
2023-01-10T15:10:56.546Z,12.78
2023-01-10T15:14:19.519Z,12.68
2023-01-10T15:16:54.940Z,12.64
2023-01-10T15:19:27.323Z,12.62
2023-01-10T15:22:13.544Z,12.57
2023-01-10T15:25:00.899Z,12.37
2023-01-10T15:27:48.142Z,12.18
2023-01-10T15:31:12.944Z,12.12
2023-01-10T15:45:30.827Z,11.03
2023-01-10T15:52:10.542Z,10.18
2023-01-10T15:54:53.838Z,9.84
2023-01-10T15:57:35.365Z,9.65
2023-01-10T16:00:07.135Z,9.56
2023-01-10T16:02:50.179Z,9.46
2023-01-10T16:05:31.092Z,9.39
2023-01-10T16:08:08.139Z,9.23
2023-01-10T16:10:41.784Z,9.20
2023-01-10T16:13:29.073Z,9.07
2023-01-10T16:16:10.917Z,8.99
2023-01-10T16:18:47.773Z,8.90
2023-01-10T16:21:17.676Z,8.87
2023-01-10T16:23:47.516Z,8.85
2023-01-10T16:26:30.537Z,8.84
2023-01-10T16:29:00.908Z,8.80
2023-01-10T16:31:32.142Z,8.77
2023-01-10T16:34:15.994Z,8.76
2023-01-10T16:36:47.682Z,8.78
2023-01-10T16:39:26.368Z,8.75
2023-01-10T16:42:13.263Z,8.77
2023-01-10T16:44:49.266Z,8.75
2023-01-10T16:47:21.057Z,8.73
2023-01-10T16:49:51.757Z,8.76
2023-01-10T16:52:20.451Z,8.76
2023-01-10T16:54:48.993Z,8.77
2023-01-10T16:57:23.839Z,8.75
2023-01-10T16:59:56.682Z,8.74
2023-01-10T17:02:25.731Z,8.72
2023-01-10T17:04:54.598Z,8.70
2023-01-10T17:07:23.638Z,8.63
2023-01-10T17:09:53.041Z,8.57
2023-01-10T17:12:25.073Z,8.56
2023-01-10T17:14:57.130Z,8.45
2023-01-10T17:17:27.414Z,8.36
2023-01-10T17:19:57.587Z,8.37
2023-01-10T17:22:27.152Z,8.35
2023-01-10T17:24:57.897Z,8.39
2023-01-10T17:27:26.554Z,8.36
2023-01-10T17:29:57.591Z,8.36
2023-01-10T17:32:26.648Z,8.33
2023-01-10T17:34:55.386Z,8.30
2023-01-10T17:37:24.048Z,8.27
2023-01-10T17:39:52.736Z,8.25
2023-01-10T17:42:22.879Z,8.24
2023-01-10T17:44:51.756Z,8.23
2023-01-10T17:47:22.914Z,8.19
2023-01-10T17:49:51.730Z,8.13
2023-01-10T17:52:20.601Z,8.13
2023-01-10T17:54:49.102Z,8.14
2023-01-10T17:57:17.777Z,8.17
2023-01-10T17:59:47.111Z,8.14
2023-01-10T18:18:07.342Z,8.00
2023-01-10T18:20:36.863Z,7.95
2023-01-10T18:32:06.745Z,8.00
2023-01-10T18:34:39.672Z,7.98
2023-01-10T18:37:31.260Z,7.89
2023-01-10T18:40:00.090Z,7.85
2023-01-10T18:42:28.592Z,7.77
2023-01-10T18:44:56.962Z,7.74
2023-01-10T18:47:25.524Z,7.73
2023-01-10T18:49:55.547Z,7.73
2023-01-10T18:52:25.583Z,7.71
2023-01-10T18:54:54.449Z,7.70
2023-01-10T18:57:24.662Z,7.71
2023-01-10T18:59:53.181Z,7.70
2023-01-10T19:02:21.862Z,7.69
2023-01-10T19:04:51.929Z,7.71
2023-01-10T19:07:21.745Z,7.78
2023-01-10T19:09:50.294Z,7.85
2023-01-10T19:12:18.977Z,7.84
2023-01-10T19:14:47.577Z,7.92
2023-01-10T19:17:15.963Z,7.96
2023-01-10T19:19:44.691Z,7.98
2023-01-10T19:22:13.157Z,7.97
2023-01-10T19:24:43.671Z,7.86
2023-01-10T19:27:12.904Z,7.79
2023-01-10T19:29:46.517Z,7.79
2023-01-10T19:32:15.149Z,7.78
2023-01-10T19:34:46.300Z,7.82
2023-01-10T19:37:15.192Z,7.85
2023-01-10T19:39:45.088Z,7.86
2023-01-10T19:42:13.696Z,7.88
2023-01-10T19:44:43.890Z,7.88
2023-01-10T19:47:12.832Z,7.90
2023-01-10T19:49:41.306Z,7.88
2023-01-10T19:52:12.024Z,7.88
2023-01-10T19:54:40.837Z,7.88
2023-01-10T19:57:10.898Z,7.86
2023-01-10T19:59:41.985Z,7.86
2023-01-10T20:02:14.984Z,7.81
2023-01-10T20:04:43.324Z,7.81
2023-01-10T20:07:11.872Z,7.79
2023-01-10T20:09:41.693Z,7.75
2023-01-10T20:12:12.723Z,7.70
2023-01-10T20:14:41.535Z,7.65
2023-01-10T20:17:10.153Z,7.59
2023-01-10T20:19:38.775Z,7.56
2023-01-10T20:22:07.796Z,7.53
2023-01-10T20:24:36.721Z,7.45
2023-01-10T20:27:12.140Z,7.41
2023-01-10T20:29:45.858Z,7.35
2023-01-10T20:32:15.756Z,7.30
2023-01-10T20:34:45.856Z,7.26
2023-01-10T20:37:14.570Z,7.21
2023-01-10T20:39:43.510Z,7.17
2023-01-10T20:42:12.383Z,7.11
2023-01-10T20:44:42.495Z,7.06
2023-01-10T20:47:12.187Z,7.03
2023-01-10T20:49:40.776Z,7.01
2023-01-10T20:52:10.319Z,6.97
2023-01-10T20:54:39.317Z,6.92
2023-01-10T20:57:08.045Z,6.88
2023-01-10T20:59:36.581Z,6.86
2023-01-10T21:02:06.752Z,6.84
2023-01-10T21:04:35.451Z,6.80
2023-01-10T21:07:06.504Z,6.79
2023-01-10T21:09:35.168Z,6.81
2023-01-10T21:12:21.517Z,6.75
2023-01-10T21:14:59.138Z,6.69
2023-01-10T21:17:29.054Z,6.66
2023-01-10T21:19:58.034Z,6.66
2023-01-10T21:22:28.380Z,6.66
2023-01-10T21:24:56.844Z,6.66
2023-01-10T21:27:30.589Z,6.67
2023-01-10T21:30:01.398Z,6.64
2023-01-10T21:32:33.099Z,6.63
2023-01-10T21:35:01.623Z,6.55
2023-01-10T21:37:30.260Z,6.55
2023-01-10T21:39:59.950Z,6.51
2023-01-10T21:42:44.970Z,6.49
2023-01-10T21:45:14.605Z,6.47
2023-01-10T21:47:44.823Z,6.49
2023-01-10T21:50:15.122Z,6.54
2023-01-10T21:52:44.561Z,6.47
2023-01-10T21:55:16.921Z,6.43
2023-01-10T21:57:45.507Z,6.37
2023-01-10T22:00:14.941Z,6.36
2023-01-10T22:02:45.057Z,6.37
2023-01-10T22:05:13.730Z,6.36
2023-01-10T22:07:43.109Z,6.39
2023-01-10T22:10:12.906Z,6.39
2023-01-10T22:12:41.516Z,6.34
2023-01-10T22:15:11.799Z,6.29
2023-01-10T22:17:40.692Z,6.30
2023-01-10T22:20:12.274Z,6.26
2023-01-10T22:22:40.914Z,6.24
2023-01-10T22:25:10.491Z,6.21
2023-01-10T22:27:39.091Z,6.23
2023-01-10T22:30:09.432Z,6.25
2023-01-10T22:32:38.338Z,6.23
2023-01-10T22:35:07.298Z,6.18
2023-01-10T22:37:37.697Z,6.14
2023-01-10T22:40:07.576Z,6.11
2023-01-10T22:42:36.142Z,6.11
2023-01-10T22:45:04.841Z,6.11
2023-01-10T22:47:34.165Z,6.09
2023-01-10T22:50:02.799Z,6.07
2023-01-10T22:52:31.402Z,6.07
2023-01-10T22:55:01.611Z,6.09
2023-01-10T22:57:32.963Z,6.14
2023-01-10T23:00:01.907Z,6.14
2023-01-10T23:02:30.610Z,6.09
2023-01-10T23:04:59.311Z,6.13
2023-01-10T23:07:27.983Z,6.19
2023-01-10T23:09:56.405Z,6.19
2023-01-10T23:12:26.210Z,6.25
2023-01-10T23:14:54.674Z,6.30
2023-01-10T23:17:23.792Z,6.22
2023-01-10T23:19:52.170Z,6.15
2023-01-10T23:22:20.604Z,6.15
2023-01-10T23:24:49.203Z,6.11
2023-01-10T23:27:17.910Z,6.08
2023-01-10T23:29:48.182Z,6.12
2023-01-10T23:32:17.137Z,6.07
2023-01-10T23:34:46.229Z,6.04
2023-01-10T23:37:14.741Z,6.04
2023-01-10T23:39:43.382Z,6.02
2023-01-10T23:42:11.921Z,6.00
2023-01-10T23:44:40.559Z,6.01
2023-01-10T23:47:10.577Z,6.01
2023-01-10T23:49:39.354Z,6.00
2023-01-10T23:52:08.396Z,6.02
2023-01-10T23:54:37.022Z,6.04
2023-01-10T23:57:05.903Z,5.99
2023-01-10T23:59:34.209Z,6.00
